Ana Sayfa
METAR-TAF:

METAR-TAF

Havaalanları :

Davao, Filipinler

Enlem: 07-07N, Boylam: 125-39E, yükseklik: 17 m

Güncel hava durumu gözlemi

Rapor saat 15:00 UTC de 30 dakika önce yapıldı.
Rüzgar güneydan 5 kt
Sıcaklık 28°C
Nem 89%
Basınç 1011 hPa
Görüş mesafesi 10 km veya daha fazla
1600 ft yükseklikte parçalı bulutlu

METAR: RPMD 181500Z 19005KT 9999 SCT016 28/26 Q1011 RMK A2985

Saat: 23:30 (15:30 UTC)

Tahmin

Rapor saat 11:00 UTC de 4 saat ve 30 dakika önce yapıldı.
Ayın 18'si saat 12 UTC'den ayın 19'si saat 12 UTC'ye kadar geçerli Tahmin
Rüzgar güneydan 6 kt
Görüş mesafesi 10 km veya daha fazla
1600 ft yükseklikte az bulutlu
29000 ft yükseklikte parçalı bulutlu
Geçici
ayın 18'si saat 12 UTC'den ayın 18'si saat 18 UTC'ye kadar
Rüzgar güneydan 3 kt
1500 ft yükseklikte az bulutlu, Kümülonimbus.
1600 ft yükseklikte az bulutlu
9000 ft yükseklikte parçalı bulutlu

TAF: RPMD 181100Z 1812/1912 17006KT 9999 FEW016 SCT290 TEMPO 1812/1818 19003KT FEW015CB FEW016 SCT090

4.000'den fazla havaalanı için hava durumu gözlemleri ve tahminleri (METAR ve TAF raporları).

Kullanılabilir istasyonlar harita üzerinde sarı ve kırmızı noktalarla gösterilir.

İstasyonun adını görmek için fareyi noktanın üzerinde gezdirin.

Sonrasında hava gözlem ve tahminlerini görmek için tıklayın.

Haritayı değiştirmek için: yaklaştırmak için siyah artı işaretli yeşil düğmeye ve uzaklaştırmak için de eksi işaretli düğmeye hızla tıklayın; bitişik haritalar için yeşil okları kullanın.


METAR-TAF: